Sct Zurich — V7NG2 — position and weather

sailwx.info

Track history (hours):
 
Tides and Currents Weather Stations Pressure Air Temp Water Temp Dewpoint Dewpoint Depression Visibility Wind Speed Wind Dir Waves Ship Positions

Sct Zurich

Last reported at 2015-May-28 09:33 UTC. Time now 2015-May-28 09:50 UTC.
Position S 20°04' E 057°26'.

Length 294 m; draft 11.3 m.

Type: Ship (hazmat cat D). MMSI: 538002956.

Date/timePositionNaut miles runAvg speedWind from/ knotsBaromVisibWave heightAir tempDewpointWater temp
2015-May-28 09:33S 20°04' E 057°26'0 0.3
2015-May-28 08:33S 20°05' E 057°27'2 1.5
2015-May-28 07:33S 20°05' E 057°25'1413.7
2015-May-28 06:33S 19°51' E 057°23'1515.1
2015-May-28 05:33S 19°36' E 057°19'  
2015-May-19 14:16N 30°56' E 032°19'7 9.0
2015-May-19 13:32N 31°03' E 032°19'12 9.5
2015-May-19 12:18N 31°15' E 032°18'6 7.2
2015-May-19 11:25N 31°20' E 032°22'4 4.6
2015-May-19 10:33N 31°24' E 032°20'0 0.1
2015-May-19 09:28N 31°24' E 032°20'0 0.0
2015-May-19 08:31N 31°24' E 032°20'0 0.0
2015-May-19 07:28N 31°24' E 032°20'0 0.0
2015-May-19 06:22N 31°24' E 032°20'0 0.0
2015-May-19 05:16N 31°24' E 032°20'0 0.0
2015-May-19 04:31N 31°24' E 032°20'0 0.0
2015-May-18 20:31N 31°24' E 032°20'0 0.0
2015-May-18 19:28N 31°24' E 032°20'0 0.0
2015-May-18 18:31N 31°24' E 032°20'0 0.0
2015-May-18 17:31N 31°24' E 032°20'0 0.0
2015-May-18 16:31N 31°24' E 032°20'0 0.2
2015-May-18 15:33N 31°24' E 032°20'9 9.1
2015-May-18 14:33N 31°31' E 032°13'1614.9
2015-May-18 13:29N 31°42' E 031°59'1314.1
2015-May-18 12:33N 31°48' E 031°46'  
Track history (hours):
 
Tides and Currents Weather Stations Pressure Air Temp Water Temp Dewpoint Dewpoint Depression Visibility Wind Speed Wind Dir Waves Ship Positions

Sct Zurich

Last reported at 2015-May-28 09:33 UTC. Time now 2015-May-28 09:50 UTC.
Position S 20°04' E 057°26'.

Length 294 m; draft 11.3 m.

Type: Ship (hazmat cat D). MMSI: 538002956.

Date/timePositionNaut miles runAvg speedWind from/ knotsBaromVisibWave heightAir tempDewpointWater temp
2015-May-28 09:33S 20°04' E 057°26'0 0.3
2015-May-28 08:33S 20°05' E 057°27'2 1.5
2015-May-28 07:33S 20°05' E 057°25'1413.7
2015-May-28 06:33S 19°51' E 057°23'1515.1
2015-May-28 05:33S 19°36' E 057°19'  
2015-May-19 14:16N 30°56' E 032°19'7 9.0
2015-May-19 13:32N 31°03' E 032°19'12 9.5
2015-May-19 12:18N 31°15' E 032°18'6 7.2
2015-May-19 11:25N 31°20' E 032°22'4 4.6
2015-May-19 10:33N 31°24' E 032°20'0 0.1
2015-May-19 09:28N 31°24' E 032°20'0 0.0
2015-May-19 08:31N 31°24' E 032°20'0 0.0
2015-May-19 07:28N 31°24' E 032°20'0 0.0
2015-May-19 06:22N 31°24' E 032°20'0 0.0
2015-May-19 05:16N 31°24' E 032°20'0 0.0
2015-May-19 04:31N 31°24' E 032°20'0 0.0
2015-May-18 20:31N 31°24' E 032°20'0 0.0
2015-May-18 19:28N 31°24' E 032°20'0 0.0
2015-May-18 18:31N 31°24' E 032°20'0 0.0
2015-May-18 17:31N 31°24' E 032°20'0 0.0
2015-May-18 16:31N 31°24' E 032°20'0 0.2
2015-May-18 15:33N 31°24' E 032°20'9 9.1
2015-May-18 14:33N 31°31' E 032°13'1614.9
2015-May-18 13:29N 31°42' E 031°59'1314.1
2015-May-18 12:33N 31°48' E 031°46'  

Dump ship's entire track history